ADDS METAR Data INFO
IDs: Format: Raw Decoded Include TAF

Data at: 1334 UTC 25 Sep 2017

KFBR 251315Z AUTO 24008KT 10SM OVC050 02/02 A3016 RMK AO2 T00200020
KFBR 251255Z AUTO 24007KT 10SM BKN050 OVC065 02/02 A3016 RMK AO2 T00200020
KFBR 251235Z AUTO 25006KT 10SM SCT050 BKN065 OVC080 02/02 A3016 RMK AO2 T00180018
KFBR 251215Z AUTO 27006KT 10SM BKN065 OVC085 02/02 A3015 RMK AO2 T00160016
KFBR 251155Z AUTO 27007KT 10SM SCT065 OVC085 02/02 A3015 RMK AO2 T00160016 10023 20016
KFBR 251135Z AUTO 28007KT 10SM OVC085 02/02 A3014 RMK AO2 T00180018
KFBR 251115Z AUTO 28009KT 10SM SCT070 OVC085 02/02 A3014 RMK AO2 T00180018
KFBR 251055Z AUTO 27011KT 10SM SCT070 OVC095 02/02 A3014 RMK AO2 T00180018
KFBR 251035Z AUTO 27009KT 10SM SCT070 OVC095 02/02 A3014 RMK AO2 T00180018
KFBR 251015Z AUTO 26010KT 10SM SCT070 OVC095 02/02 A3014 RMK AO2 T00200020
KFBR 250955Z AUTO 25008KT 10SM SCT070 BKN095 02/02 A3014 RMK AO2 T00200020
KFBR 250935Z AUTO 25011KT 10SM SCT070 OVC095 02/02 A3014 RMK AO2 T00210021
KFBR 250915Z AUTO 26011KT 10SM SCT030 SCT049 OVC070 02/02 A3014 RMK AO2 T00220022
KFBR 250855Z AUTO 27010KT 10SM BKN012 BKN030 OVC070 02/02 A3014 RMK AO2 T00230023
KFBR 250835Z AUTO 27011KT 10SM -RA OVC012 02/02 A3015 RMK AO2 T00220022
KFBR 250815Z AUTO 26011KT 10SM -RA OVC012 02/02 A3015 RMK AO2 T00220022
KFBR 250755Z AUTO 26010KT 10SM OVC012 02/02 A3015 RMK AO2 T00230023
KFBR 250735Z AUTO 25010KT 10SM BKN012 OVC020 02/02 A3014 RMK AO2 T00220022
KFBR 250715Z AUTO 26010KT 10SM BKN017 OVC023 02/02 A3014 RMK AO2 T00220022
KFBR 250655Z AUTO 26010KT 10SM SCT012 BKN019 OVC025 02/02 A3014 RMK AO2 T00210021
KFBR 250635Z AUTO 26009KT 10SM SCT011 BKN025 OVC030 02/02 A3014 RMK AO2 T00200020
KFBR 250615Z AUTO 25011KT 10SM BKN011 BKN025 OVC034 02/02 A3014 RMK AO2 T00200020
KFBR 250555Z AUTO 26010KT 10SM BKN011 OVC025 02/02 A3013 RMK AO2 T00200020 10020 20013 400350007
KFBR 250535Z AUTO 26009KT 10SM -DZ BKN011 OVC025 02/02 A3013 RMK AO2 T00190019
KFBR 250515Z AUTO 25009KT 10SM BKN009 OVC025 02/02 A3012 RMK AO2 T00170017
KFBR 250455Z AUTO 26010KT 10SM OVC009 02/02 A3012 RMK AO2 T00190019
KFBR 250435Z AUTO 26011G18KT 10SM OVC009 02/02 A3012 RMK AO2 T00180018
KFBR 250415Z AUTO 25012KT 10SM SCT011 BKN026 OVC055 02/02 A3012 RMK AO2 T00180018
KFBR 250355Z AUTO 26010G15KT 10SM BKN011 OVC055 02/02 A3011 RMK AO2 T00190019
KFBR 250335Z AUTO 26010KT 10SM OVC011 02/02 A3011 RMK AO2 T00200020
KFBR 250315Z AUTO 25009KT 10SM OVC011 02/02 A3011 RMK AO2 T00200020
KFBR 250255Z AUTO 25010KT 5SM -RA OVC009 02/02 A3011 RMK AO2 T00190019
KFBR 250235Z AUTO 25009KT 1 3/4SM -SN OVC007 02/02 A3010 RMK AO2 VIS 1/4V5 T00160016
KFBR 250215Z AUTO 25011KT 2 1/2SM -SN OVC009 02/02 A3010 RMK AO2 T00160016
KFBR 250155Z AUTO 25010KT 10SM SCT003 BKN011 OVC030 02/02 A3009 RMK AO2 T00180018
KFBR 250135Z AUTO 25007KT 10SM SCT003 BKN030 OVC044 02/02 A3008 RMK AO2 T00190019
KFBR 250115Z AUTO 27008KT 10SM SCT007 BKN042 OVC050 02/02 A3008 RMK AO2 T00200020
KFBR 250055Z AUTO 27008KT 10SM -SN SCT003 BKN007 OVC050 02/02 A3006 RMK AO2 T00180018
KFBR 250035Z AUTO 26006KT 3SM -SN BKN003 OVC007 02/02 A3006 RMK AO2 T00150015
KFBR 250015Z AUTO 26006KT M1/4SM FG OVC003 01/01 A3006 RMK AO2 T00140014
KFBR 242355Z AUTO 28005KT 1/4SM -VCTSSN OVC003 01/01 A3006 RMK AO2 T00130013 10035 20012
KFBR 242335Z AUTO 28006KT 1SM -TSSN BKN006 OVC012 02/02 A3004 RMK AO2 T00150015
KFBR 242315Z AUTO 29006KT 5SM -VCTSRA BKN006 OVC027 02/02 A3004 RMK AO2 T00200020
KFBR 242255Z AUTO 26008KT 7SM -RA SCT010 BKN029 OVC035 02/02 A3003 RMK AO2 LTG DSNT NE AND E T00240024
KFBR 242235Z AUTO 24006KT 10SM -RA SCT007 OVC033 02/02 A3002 RMK AO2 LTG DSNT SE T00230023
KFBR 242215Z AUTO 26006KT 10SM -RA OVC005 02/02 A3001 RMK AO2 LTG DSNT NE AND E T00230023
KFBR 242155Z AUTO 25006KT 10SM -DZ SCT003 BKN013 OVC050 03/03 A3001 RMK AO2 LTG DSNT NE T00250025
KFBR 242135Z AUTO 25008KT 7SM DZ SCT004 SCT022 OVC050 03/03 A3000 RMK AO2 T00250025
KFBR 242115Z AUTO 25009KT 5SM -RA SCT002 BKN040 OVC048 03/03 A3000 RMK AO2 T00290029
KFBR 242055Z AUTO 25003KT 10SM -TSRA SCT019 BKN040 OVC048 03/03 A2998 RMK AO2 LTG DSNT SE T00320032
KFBR 242035Z AUTO 00000KT 10SM -DZ SCT017 BKN042 OVC050 03/03 A2998 RMK AO2 LTG DSNT E AND SE T00320032
KFBR 242015Z AUTO 04008KT 10SM -RA SCT012 BKN017 OVC047 03/03 A2997 RMK AO2 LTG DSNT SE T00300030
KFBR 241955Z AUTO 14003KT 7SM RA BKN012 BKN018 OVC024 02/02 A2996 RMK AO2 T00240024
KFBR 241935Z AUTO 13008KT 1 1/4SM -VCTSRA OVC010 02/02 A2996 RMK AO2 LTG DSNT NE T00200020
KFBR 241915Z AUTO 07007KT 4SM RA BKN003 OVC008 03/03 A2996 RMK AO2 LTG DSNT E T00270027
KFBR 241855Z AUTO 06003KT 4SM -RA OVC003 03/03 A2996 RMK AO2 T00250025
KFBR 241835Z AUTO 07005KT 7SM -RA OVC003 02/02 A2996 RMK AO2 T00210021
KFBR 241815Z AUTO 07005KT M1/4SM -RA OVC003 02/02 A2996 RMK AO2 LTG DSNT S T00150015
KFBR 241755Z AUTO 06006KT M1/4SM FG OVC003 01/01 A2996 RMK AO2 T00130013 10013 20007
KFBR 241735Z AUTO 08010KT M1/4SM -SN OVC003 01/01 A2995 RMK AO2 T00110011
KFBR 241715Z AUTO 07012KT 1/4SM -SN OVC003 01/01 A2995 RMK AO2 T00100010
KFBR 241655Z AUTO 04009KT 1/4SM -SN OVC003 01/01 A2994 RMK AO2 LTG DSNT SE T00080008
KFBR 241635Z AUTO 05010KT 1/4SM +SN OVC003 01/01 A2994 RMK AO2 T00080008
KFBR 241615Z AUTO 05010KT 1/4SM SN OVC003 01/01 A2994 RMK AO2 T00080008
KFBR 241555Z AUTO 06008KT 1/4SM SN OVC003 01/01 A2995 RMK AO2 T00070007
KFBR 241535Z AUTO 06010KT 1/4SM -SN OVC003 01/01 A2995 RMK AO2 T00080008
KFBR 241515Z AUTO 07009KT 1/4SM -SN OVC003 01/01 A2994 RMK AO2 LTG DSNT SE T00100010
KFBR 241455Z AUTO 05008KT 1/4SM -SN OVC003 01/01 A2994 RMK AO2 LTG DSNT E T00080008
KFBR 241435Z AUTO 03006KT 1/4SM -SN OVC003 01/01 A2994 RMK AO2 T00070007
KFBR 241415Z AUTO 02007KT 1/4SM -SN OVC003 01/01 A2993 RMK AO2 LTG DSNT E T00080008
KFBR 241355Z AUTO 03005KT M1/4SM -SN OVC003 01/01 A2994 RMK AO2 T00090009
KFBR 241335Z AUTO 04007KT 1/4SM FG OVC003 01/01 A2995 RMK AO2 T00090009
KFBR 241315Z AUTO 03008KT 1/4SM FG OVC003 01/01 A2994 RMK AO2 T00090009
KFBR 241255Z AUTO 04006KT 1/4SM FG OVC003 01/01 A2994 RMK AO2 LTG DSNT S T00070007
KFBR 241235Z AUTO 03006KT 1/4SM FG OVC003 01/01 A2994 RMK AO2 LTG DSNT SE T00080008
KFBR 241215Z AUTO 04007KT 1/4SM FG OVC003 01/01 A2994 RMK AO2 LTG DSNT S T00070007
KFBR 241155Z AUTO 04008KT 1/2SM FG OVC003 01/01 A2994 RMK AO2 T00070007 10025 20007
KFBR 241135Z AUTO 05007KT 1/2SM -SN OVC003 01/01 A2995 RMK AO2 LTG DSNT S T00070007
KFBR 241115Z AUTO 05006KT 1/4SM -SN OVC003 01/01 A2995 RMK AO2 T00080008
KFBR 241055Z AUTO 05006KT 1/4SM -VCTSSN OVC003 01/01 A2995 RMK AO2 T00100010
KFBR 241035Z AUTO 07007KT 1/4SM -SN OVC003 01/01 A2995 RMK AO2 LTG DSNT S T00100010
KFBR 241015Z AUTO 08008KT 1/4SM -SN OVC003 01/01 A2995 RMK AO2 LTG DSNT S T00100010
KFBR 240955Z AUTO 08008KT 1/2SM -SN BKN003 OVC009 01/01 A2995 RMK AO2 LTG DSNT SW T00100010
KFBR 240935Z AUTO 09006KT 2SM -SN SCT003 SCT007 OVC015 01/01 A2995 RMK AO2 VIS 1 1/4V5 T00110011
KFBR 240915Z AUTO 07004KT 3/4SM -SN OVC006 01/01 A2995 RMK AO2 LTG DSNT S T00110011
KFBR 240855Z AUTO 11004KT 1 1/4SM -SN OVC004 01/01 A2996 RMK AO2 T00140014
KFBR 240835Z AUTO 13005KT 10SM -RA OVC004 03/03 A2997 RMK AO2 T00250025
KFBR 240815Z AUTO 00000KT 10SM OVC004 03/03 A2997 RMK AO2 T00250025
KFBR 240755Z AUTO 00000KT 10SM OVC006 02/02 A2996 RMK AO2 T00220022
KFBR 240735Z AUTO 00000KT 10SM OVC006 02/02 A2996 RMK AO2 T00200020
KFBR 240715Z AUTO 29004KT 10SM -DZ SCT006 BKN022 OVC043 02/02 A2996 RMK AO2 T00200020
KFBR 240655Z AUTO 28004KT 10SM -DZ SCT027 BKN043 OVC080 02/02 A2996 RMK AO2 LTG DSNT S T00210021
KFBR 240635Z AUTO 28006KT 10SM -RA SCT004 BKN034 OVC070 02/02 A2996 RMK AO2 T00220022
KFBR 240615Z AUTO 26008KT 10SM BKN005 OVC013 02/02 A2997 RMK AO2 T00220022
KFBR 240555Z AUTO 26009KT 5SM -RA OVC007 02/02 A2998 RMK AO2 LTG DSNT S T00210021 10085 20021 400900001
KFBR 240535Z AUTO 26007KT 10SM -SN OVC007 03/03 A2998 RMK AO2 LTG DSNT S T00270027
KFBR 240515Z AUTO 28007KT 10SM -DZ OVC007 03/03 A2998 RMK AO2 T00280028
KFBR 240455Z AUTO 28007KT 10SM TS BKN009 OVC012 03/03 A2998 RMK AO2 LTG DSNT SE AND S T00290029
KFBR 240435Z AUTO 29009KT 10SM SCT006 BKN014 OVC023 03/03 A2996 RMK AO2 LTG DSNT SE T00280028
KFBR 240415Z AUTO 29010KT 7SM -TSRA SCT004 BKN023 OVC029 03/03 A2996 RMK AO2 LTG DSNT SE T00280028
KFBR 240355Z AUTO 27009G15KT 3SM -TSRA BKN023 OVC028 03/03 A2996 RMK AO2 T00270027
KFBR 240335Z AUTO 26012G16KT 10SM VCTS BKN027 OVC033 03/03 A2996 RMK AO2 LTG DSNT N T00250025
KFBR 240315Z AUTO 25011G18KT 7SM TSRA SCT004 BKN026 OVC039 02/02 A2996 RMK AO2 LTG DSNT N S AND NW T00230023
KFBR 240255Z AUTO 24016G25KT 2 1/2SM -VCTSRA BKN014 OVC028 03/03 A2996 RMK AO2 VIS 1 1/2V5 LTG DSNT SW AND W T00270025
KFBR 240235Z AUTO 24009G14KT 10SM VCTS SCT010 BKN028 OVC046 06/05 A2995 RMK AO2 T00600045
KFBR 240215Z AUTO 28004KT 10SM SCT029 SCT036 OVC046 07/03 A2995 RMK AO2 LTG DSNT NE T00650032
KFBR 240155Z AUTO 33003KT 10SM SCT029 BKN048 OVC050 07/03 A2995 RMK AO2 LTG DSNT NE T00700027
KFBR 240135Z AUTO 00000KT 10SM BKN050 OVC075 07/03 A2995 RMK AO2 T00660029